sensor_id;sensor_type;location;lat;lon;timestamp;P1;durP1;ratioP1;P2;durP2;ratioP2
73825;SDS011;62155;55.080;73.208;2022-07-22T00:00:33;49.67;;;40.67;;
73825;SDS011;62155;55.080;73.208;2022-07-22T00:03:00;48.50;;;41.00;;
73825;SDS011;62155;55.080;73.208;2022-07-22T00:05:29;34.00;;;30.67;;
73825;SDS011;62155;55.080;73.208;2022-07-22T00:07:56;18.50;;;16.50;;
73825;SDS011;62155;55.080;73.208;2022-07-22T00:10:27;22.33;;;19.00;;
73825;SDS011;62155;55.080;73.208;2022-07-22T00:12:55;25.25;;;24.00;;
73825;SDS011;62155;55.080;73.208;2022-07-22T00:15:22;20.67;;;18.33;;
73825;SDS011;62155;55.080;73.208;2022-07-22T00:17:50;15.00;;;13.25;;
73825;SDS011;62155;55.080;73.208;2022-07-22T00:20:24;8.67;;;7.33;;
73825;SDS011;62155;55.080;73.208;2022-07-22T00:22:51;6.75;;;6.75;;
73825;SDS011;62155;55.080;73.208;2022-07-22T00:25:20;5.00;;;5.00;;
73825;SDS011;62155;55.080;73.208;2022-07-22T00:27:47;8.00;;;8.00;;
73825;SDS011;62155;55.080;73.208;2022-07-22T00:30:14;6.67;;;6.67;;
73825;SDS011;62155;55.080;73.208;2022-07-22T00:32:42;4.00;;;4.00;;
73825;SDS011;62155;55.080;73.208;2022-07-22T00:35:09;6.00;;;6.00;;
73825;SDS011;62155;55.080;73.208;2022-07-22T00:37:36;5.25;;;5.25;;
73825;SDS011;62155;55.080;73.208;2022-07-22T00:40:04;6.33;;;5.33;;
73825;SDS011;62155;55.080;73.208;2022-07-22T00:42:33;5.00;;;5.00;;
73825;SDS011;62155;55.080;73.208;2022-07-22T00:45:06;8.00;;;6.00;;
73825;SDS011;62155;55.080;73.208;2022-07-22T00:47:34;6.50;;;5.75;;
73825;SDS011;62155;55.080;73.208;2022-07-22T00:50:08;6.00;;;6.00;;
73825;SDS011;62155;55.080;73.208;2022-07-22T00:52:36;6.50;;;6.00;;
73825;SDS011;62155;55.080;73.208;2022-07-22T00:55:06;7.00;;;7.00;;
73825;SDS011;62155;55.080;73.208;2022-07-22T00:57:40;7.00;;;7.00;;
73825;SDS011;62155;55.080;73.208;2022-07-22T01:00:10;3.33;;;3.33;;
73825;SDS011;62155;55.080;73.208;2022-07-22T01:02:38;5.00;;;4.00;;
73825;SDS011;62155;55.080;73.208;2022-07-22T01:05:06;4.00;;;4.00;;
73825;SDS011;62155;55.080;73.208;2022-07-22T01:07:37;4.00;;;4.00;;
73825;SDS011;62155;55.080;73.208;2022-07-22T01:10:05;5.00;;;4.00;;
73825;SDS011;62155;55.080;73.208;2022-07-22T01:12:33;12.25;;;10.75;;
73825;SDS011;62155;55.080;73.208;2022-07-22T01:15:08;18.00;;;17.00;;
73825;SDS011;62155;55.080;73.208;2022-07-22T01:17:39;17.75;;;16.75;;
73825;SDS011;62155;55.080;73.208;2022-07-22T01:20:06;14.00;;;11.33;;
73825;SDS011;62155;55.080;73.208;2022-07-22T01:22:58;9.00;;;7.00;;
73825;SDS011;62155;55.080;73.208;2022-07-22T01:25:28;16.00;;;11.00;;
73825;SDS011;62155;55.080;73.208;2022-07-22T01:27:56;7.75;;;6.50;;
73825;SDS011;62155;55.080;73.208;2022-07-22T01:30:36;6.67;;;5.67;;
73825;SDS011;62155;55.080;73.208;2022-07-22T01:33:03;6.50;;;6.50;;
73825;SDS011;62155;55.080;73.208;2022-07-22T01:35:38;22.25;;;20.00;;
73825;SDS011;62155;55.080;73.208;2022-07-22T01:38:06;20.75;;;17.50;;
73825;SDS011;62155;55.080;73.208;2022-07-22T01:40:44;16.67;;;15.33;;
73825;SDS011;62155;55.080;73.208;2022-07-22T01:43:14;14.50;;;13.75;;
73825;SDS011;62155;55.080;73.208;2022-07-22T01:45:47;11.33;;;9.33;;
73825;SDS011;62155;55.080;73.208;2022-07-22T01:48:21;14.00;;;12.75;;
73825;SDS011;62155;55.080;73.208;2022-07-22T01:50:54;15.00;;;13.67;;
73825;SDS011;62155;55.080;73.208;2022-07-22T01:53:22;12.50;;;10.25;;
73825;SDS011;62155;55.080;73.208;2022-07-22T01:55:59;15.50;;;13.50;;
73825;SDS011;62155;55.080;73.208;2022-07-22T01:58:29;5.75;;;4.50;;
73825;SDS011;62155;55.080;73.208;2022-07-22T02:01:01;4.25;;;4.25;;
73825;SDS011;62155;55.080;73.208;2022-07-22T02:03:33;5.00;;;5.00;;
73825;SDS011;62155;55.080;73.208;2022-07-22T02:06:01;5.00;;;5.00;;
73825;SDS011;62155;55.080;73.208;2022-07-22T02:08:30;1.00;;;1.00;;
73825;SDS011;62155;55.080;73.208;2022-07-22T02:11:14;4.75;;;4.00;;
73825;SDS011;62155;55.080;73.208;2022-07-22T02:14:04;2.25;;;2.25;;
73825;SDS011;62155;55.080;73.208;2022-07-22T02:16:31;2.00;;;2.00;;
73825;SDS011;62155;55.080;73.208;2022-07-22T02:18:58;3.50;;;3.00;;
73825;SDS011;62155;55.080;73.208;2022-07-22T02:21:25;3.75;;;3.00;;
73825;SDS011;62155;55.080;73.208;2022-07-22T02:23:58;2.25;;;2.00;;
73825;SDS011;62155;55.080;73.208;2022-07-22T02:26:26;2.00;;;2.00;;
73825;SDS011;62155;55.080;73.208;2022-07-22T02:28:58;3.75;;;3.00;;
73825;SDS011;62155;55.080;73.208;2022-07-22T02:31:37;3.00;;;3.00;;
73825;SDS011;62155;55.080;73.208;2022-07-22T02:34:11;4.00;;;3.00;;
73825;SDS011;62155;55.080;73.208;2022-07-22T02:36:38;4.00;;;4.00;;
73825;SDS011;62155;55.080;73.208;2022-07-22T02:39:07;2.00;;;2.00;;
73825;SDS011;62155;55.080;73.208;2022-07-22T02:41:37;2.00;;;1.00;;
73825;SDS011;62155;55.080;73.208;2022-07-22T02:44:04;3.00;;;2.50;;
73825;SDS011;62155;55.080;73.208;2022-07-22T02:46:32;3.33;;;3.00;;
73825;SDS011;62155;55.080;73.208;2022-07-22T02:49:11;5.00;;;5.00;;
73825;SDS011;62155;55.080;73.208;2022-07-22T02:51:39;4.33;;;4.33;;
73825;SDS011;62155;55.080;73.208;2022-07-22T02:54:07;5.00;;;5.00;;
73825;SDS011;62155;55.080;73.208;2022-07-22T02:56:34;6.67;;;6.67;;
73825;SDS011;62155;55.080;73.208;2022-07-22T02:59:06;7.00;;;7.00;;
73825;SDS011;62155;55.080;73.208;2022-07-22T03:01:33;5.00;;;5.00;;
73825;SDS011;62155;55.080;73.208;2022-07-22T03:04:02;5.25;;;5.25;;
73825;SDS011;62155;55.080;73.208;2022-07-22T03:06:35;5.00;;;5.00;;
73825;SDS011;62155;55.080;73.208;2022-07-22T03:09:08;4.50;;;4.50;;
73825;SDS011;62155;55.080;73.208;2022-07-22T03:11:42;5.00;;;5.00;;
73825;SDS011;62155;55.080;73.208;2022-07-22T03:14:11;4.00;;;4.00;;
73825;SDS011;62155;55.080;73.208;2022-07-22T03:16:39;5.00;;;5.00;;
73825;SDS011;62155;55.080;73.208;2022-07-22T03:19:06;4.50;;;4.25;;
73825;SDS011;62155;55.080;73.208;2022-07-22T03:21:52;6.00;;;6.00;;
73825;SDS011;62155;55.080;73.208;2022-07-22T03:24:26;7.00;;;7.00;;
73825;SDS011;62155;55.080;73.208;2022-07-22T03:26:53;7.00;;;7.00;;
73825;SDS011;62155;55.080;73.208;2022-07-22T03:29:26;8.00;;;8.00;;
73825;SDS011;62155;55.080;73.208;2022-07-22T03:31:53;10.00;;;7.00;;
73825;SDS011;62155;55.080;73.208;2022-07-22T03:34:47;8.25;;;7.00;;
73825;SDS011;62155;55.080;73.208;2022-07-22T03:37:25;5.00;;;5.00;;
73825;SDS011;62155;55.080;73.208;2022-07-22T03:39:54;6.00;;;6.00;;
73825;SDS011;62155;55.080;73.208;2022-07-22T03:42:20;7.00;;;6.00;;
73825;SDS011;62155;55.080;73.208;2022-07-22T03:44:48;7.00;;;7.00;;
73825;SDS011;62155;55.080;73.208;2022-07-22T03:47:18;10.00;;;9.25;;
73825;SDS011;62155;55.080;73.208;2022-07-22T03:49:58;11.00;;;10.00;;
73825;SDS011;62155;55.080;73.208;2022-07-22T03:52:41;8.25;;;8.25;;
73825;SDS011;62155;55.080;73.208;2022-07-22T03:55:18;8.00;;;8.00;;
73825;SDS011;62155;55.080;73.208;2022-07-22T03:57:51;9.00;;;9.00;;
73825;SDS011;62155;55.080;73.208;2022-07-22T04:00:25;7.00;;;7.00;;
73825;SDS011;62155;55.080;73.208;2022-07-22T04:03:08;10.00;;;10.00;;
73825;SDS011;62155;55.080;73.208;2022-07-22T04:05:53;12.00;;;11.00;;
73825;SDS011;62155;55.080;73.208;2022-07-22T04:08:39;11.00;;;10.75;;
73825;SDS011;62155;55.080;73.208;2022-07-22T04:11:14;12.00;;;11.00;;
73825;SDS011;62155;55.080;73.208;2022-07-22T04:13:41;9.00;;;9.00;;
73825;SDS011;62155;55.080;73.208;2022-07-22T04:16:08;7.00;;;7.00;;
73825;SDS011;62155;55.080;73.208;2022-07-22T04:18:36;9.00;;;8.00;;
73825;SDS011;62155;55.080;73.208;2022-07-22T04:21:04;11.25;;;10.75;;
73825;SDS011;62155;55.080;73.208;2022-07-22T04:23:58;12.00;;;12.00;;
73825;SDS011;62155;55.080;73.208;2022-07-22T04:26:29;12.67;;;11.00;;
73825;SDS011;62155;55.080;73.208;2022-07-22T04:28:57;14.25;;;13.00;;
73825;SDS011;62155;55.080;73.208;2022-07-22T04:31:26;17.00;;;14.00;;
73825;SDS011;62155;55.080;73.208;2022-07-22T04:34:00;13.00;;;9.00;;
73825;SDS011;62155;55.080;73.208;2022-07-22T04:36:28;11.00;;;8.00;;
73825;SDS011;62155;55.080;73.208;2022-07-22T04:38:55;13.00;;;10.25;;
73825;SDS011;62155;55.080;73.208;2022-07-22T04:41:22;14.25;;;12.00;;
73825;SDS011;62155;55.080;73.208;2022-07-22T04:43:50;15.00;;;13.00;;
73825;SDS011;62155;55.080;73.208;2022-07-22T04:46:19;14.00;;;11.67;;
73825;SDS011;62155;55.080;73.208;2022-07-22T04:48:56;16.00;;;14.00;;
73825;SDS011;62155;55.080;73.208;2022-07-22T04:51:23;16.33;;;16.33;;
73825;SDS011;62155;55.080;73.208;2022-07-22T04:53:58;17.50;;;17.50;;
73825;SDS011;62155;55.080;73.208;2022-07-22T04:56:26;17.50;;;16.50;;
73825;SDS011;62155;55.080;73.208;2022-07-22T04:58:53;18.25;;;18.25;;
73825;SDS011;62155;55.080;73.208;2022-07-22T05:01:25;18.00;;;18.00;;
73825;SDS011;62155;55.080;73.208;2022-07-22T05:03:54;17.75;;;17.75;;
73825;SDS011;62155;55.080;73.208;2022-07-22T05:06:41;17.25;;;17.00;;
73825;SDS011;62155;55.080;73.208;2022-07-22T05:09:09;19.00;;;17.00;;
73825;SDS011;62155;55.080;73.208;2022-07-22T05:11:36;18.00;;;18.00;;
73825;SDS011;62155;55.080;73.208;2022-07-22T05:14:14;19.50;;;18.50;;
73825;SDS011;62155;55.080;73.208;2022-07-22T05:16:54;20.00;;;18.00;;
73825;SDS011;62155;55.080;73.208;2022-07-22T05:19:27;19.00;;;18.00;;
73825;SDS011;62155;55.080;73.208;2022-07-22T05:21:54;18.00;;;18.00;;
73825;SDS011;62155;55.080;73.208;2022-07-22T05:24:26;18.00;;;18.00;;
73825;SDS011;62155;55.080;73.208;2022-07-22T05:27:03;18.00;;;17.00;;
73825;SDS011;62155;55.080;73.208;2022-07-22T05:29:31;19.50;;;18.50;;
73825;SDS011;62155;55.080;73.208;2022-07-22T05:32:18;18.00;;;18.00;;
73825;SDS011;62155;55.080;73.208;2022-07-22T05:34:49;18.67;;;18.00;;
73825;SDS011;62155;55.080;73.208;2022-07-22T05:37:16;18.00;;;17.00;;
73825;SDS011;62155;55.080;73.208;2022-07-22T05:39:44;19.25;;;18.25;;
73825;SDS011;62155;55.080;73.208;2022-07-22T05:42:24;22.00;;;20.00;;
73825;SDS011;62155;55.080;73.208;2022-07-22T05:44:51;20.33;;;20.00;;
73825;SDS011;62155;55.080;73.208;2022-07-22T05:47:28;21.75;;;20.75;;
73825;SDS011;62155;55.080;73.208;2022-07-22T05:50:23;19.33;;;19.00;;
73825;SDS011;62155;55.080;73.208;2022-07-22T05:52:50;19.00;;;19.00;;
73825;SDS011;62155;55.080;73.208;2022-07-22T05:55:17;21.00;;;20.00;;
73825;SDS011;62155;55.080;73.208;2022-07-22T05:57:54;20.00;;;19.00;;
73825;SDS011;62155;55.080;73.208;2022-07-22T06:00:21;19.00;;;18.00;;
73825;SDS011;62155;55.080;73.208;2022-07-22T06:02:49;18.00;;;18.00;;
73825;SDS011;62155;55.080;73.208;2022-07-22T06:05:21;18.00;;;18.00;;
73825;SDS011;62155;55.080;73.208;2022-07-22T06:07:49;21.00;;;21.00;;
73825;SDS011;62155;55.080;73.208;2022-07-22T06:10:37;19.00;;;19.00;;
73825;SDS011;62155;55.080;73.208;2022-07-22T06:13:16;19.75;;;19.75;;
73825;SDS011;62155;55.080;73.208;2022-07-22T06:15:44;19.00;;;19.00;;
73825;SDS011;62155;55.080;73.208;2022-07-22T06:18:13;21.75;;;18.75;;
73825;SDS011;62155;55.080;73.208;2022-07-22T06:20:40;19.00;;;19.00;;
73825;SDS011;62155;55.080;73.208;2022-07-22T06:23:08;18.00;;;17.00;;
73825;SDS011;62155;55.080;73.208;2022-07-22T06:25:36;18.00;;;18.00;;
73825;SDS011;62155;55.080;73.208;2022-07-22T06:28:04;19.00;;;19.00;;
73825;SDS011;62155;55.080;73.208;2022-07-22T06:30:34;20.00;;;19.00;;
73825;SDS011;62155;55.080;73.208;2022-07-22T06:33:06;19.00;;;18.25;;
73825;SDS011;62155;55.080;73.208;2022-07-22T06:35:34;18.50;;;18.50;;
73825;SDS011;62155;55.080;73.208;2022-07-22T06:38:02;17.00;;;17.00;;
73825;SDS011;62155;55.080;73.208;2022-07-22T06:40:29;18.00;;;17.00;;
73825;SDS011;62155;55.080;73.208;2022-07-22T06:43:18;17.00;;;17.00;;
73825;SDS011;62155;55.080;73.208;2022-07-22T06:46:08;17.00;;;17.00;;
73825;SDS011;62155;55.080;73.208;2022-07-22T06:48:49;18.00;;;17.00;;
73825;SDS011;62155;55.080;73.208;2022-07-22T06:51:17;16.00;;;16.00;;
73825;SDS011;62155;55.080;73.208;2022-07-22T06:53:45;19.00;;;18.00;;
73825;SDS011;62155;55.080;73.208;2022-07-22T06:56:14;18.50;;;18.50;;
73825;SDS011;62155;55.080;73.208;2022-07-22T06:58:42;19.00;;;19.00;;
73825;SDS011;62155;55.080;73.208;2022-07-22T07:01:10;17.00;;;17.00;;
73825;SDS011;62155;55.080;73.208;2022-07-22T07:03:58;18.00;;;17.00;;
73825;SDS011;62155;55.080;73.208;2022-07-22T07:06:25;18.00;;;18.00;;
73825;SDS011;62155;55.080;73.208;2022-07-22T07:09:12;19.75;;;18.75;;
73825;SDS011;62155;55.080;73.208;2022-07-22T07:11:41;19.00;;;19.00;;
73825;SDS011;62155;55.080;73.208;2022-07-22T07:14:26;18.00;;;18.00;;
73825;SDS011;62155;55.080;73.208;2022-07-22T07:16:54;18.50;;;18.00;;
73825;SDS011;62155;55.080;73.208;2022-07-22T07:19:26;15.00;;;15.00;;
73825;SDS011;62155;55.080;73.208;2022-07-22T07:21:53;17.50;;;17.50;;
73825;SDS011;62155;55.080;73.208;2022-07-22T07:24:33;17.00;;;17.00;;
73825;SDS011;62155;55.080;73.208;2022-07-22T07:27:01;18.00;;;17.00;;
73825;SDS011;62155;55.080;73.208;2022-07-22T07:29:28;19.00;;;18.00;;
73825;SDS011;62155;55.080;73.208;2022-07-22T07:32:04;18.50;;;18.50;;
73825;SDS011;62155;55.080;73.208;2022-07-22T07:34:30;16.00;;;16.00;;
73825;SDS011;62155;55.080;73.208;2022-07-22T07:36:58;18.00;;;18.00;;
73825;SDS011;62155;55.080;73.208;2022-07-22T07:39:35;18.00;;;18.00;;
73825;SDS011;62155;55.080;73.208;2022-07-22T07:42:13;18.00;;;17.25;;
73825;SDS011;62155;55.080;73.208;2022-07-22T07:44:40;18.00;;;18.00;;
73825;SDS011;62155;55.080;73.208;2022-07-22T07:47:33;18.25;;;18.25;;
73825;SDS011;62155;55.080;73.208;2022-07-22T07:50:02;19.00;;;18.00;;
73825;SDS011;62155;55.080;73.208;2022-07-22T07:52:31;18.50;;;18.50;;
73825;SDS011;62155;55.080;73.208;2022-07-22T07:55:10;18.00;;;18.00;;
73825;SDS011;62155;55.080;73.208;2022-07-22T07:57:59;17.50;;;17.50;;
73825;SDS011;62155;55.080;73.208;2022-07-22T08:00:28;20.00;;;19.00;;
73825;SDS011;62155;55.080;73.208;2022-07-22T08:03:06;21.00;;;20.00;;
73825;SDS011;62155;55.080;73.208;2022-07-22T08:05:37;18.00;;;18.00;;
73825;SDS011;62155;55.080;73.208;2022-07-22T08:08:10;17.00;;;17.00;;
73825;SDS011;62155;55.080;73.208;2022-07-22T08:10:39;15.25;;;14.75;;
73825;SDS011;62155;55.080;73.208;2022-07-22T08:13:08;14.00;;;13.00;;
73825;SDS011;62155;55.080;73.208;2022-07-22T08:16:05;14.00;;;14.00;;
73825;SDS011;62155;55.080;73.208;2022-07-22T08:18:42;15.00;;;15.00;;
73825;SDS011;62155;55.080;73.208;2022-07-22T08:21:10;17.00;;;16.00;;
73825;SDS011;62155;55.080;73.208;2022-07-22T08:23:44;19.00;;;17.00;;
73825;SDS011;62155;55.080;73.208;2022-07-22T08:26:14;18.00;;;17.00;;
73825;SDS011;62155;55.080;73.208;2022-07-22T08:28:41;17.00;;;16.00;;
73825;SDS011;62155;55.080;73.208;2022-07-22T08:31:09;15.00;;;14.00;;
73825;SDS011;62155;55.080;73.208;2022-07-22T08:33:37;16.75;;;15.00;;
73825;SDS011;62155;55.080;73.208;2022-07-22T08:36:04;18.00;;;17.00;;
73825;SDS011;62155;55.080;73.208;2022-07-22T08:38:44;19.00;;;18.25;;
73825;SDS011;62155;55.080;73.208;2022-07-22T08:41:12;21.25;;;19.50;;
73825;SDS011;62155;55.080;73.208;2022-07-22T08:43:41;21.00;;;20.00;;
73825;SDS011;62155;55.080;73.208;2022-07-22T08:46:08;21.00;;;21.00;;
73825;SDS011;62155;55.080;73.208;2022-07-22T08:49:06;19.00;;;19.00;;
73825;SDS011;62155;55.080;73.208;2022-07-22T08:51:53;21.00;;;20.00;;
73825;SDS011;62155;55.080;73.208;2022-07-22T08:54:26;20.00;;;19.00;;
73825;SDS011;62155;55.080;73.208;2022-07-22T08:57:01;19.50;;;19.50;;
73825;SDS011;62155;55.080;73.208;2022-07-22T08:59:28;21.50;;;20.00;;
73825;SDS011;62155;55.080;73.208;2022-07-22T09:02:08;23.00;;;21.00;;
73825;SDS011;62155;55.080;73.208;2022-07-22T09:04:50;21.00;;;20.00;;
73825;SDS011;62155;55.080;73.208;2022-07-22T09:07:23;19.00;;;19.00;;
73825;SDS011;62155;55.080;73.208;2022-07-22T09:09:52;20.00;;;20.00;;
73825;SDS011;62155;55.080;73.208;2022-07-22T09:13:01;21.00;;;20.00;;
73825;SDS011;62155;55.080;73.208;2022-07-22T09:15:52;21.00;;;20.00;;
73825;SDS011;62155;55.080;73.208;2022-07-22T09:18:50;21.00;;;20.75;;
73825;SDS011;62155;55.080;73.208;2022-07-22T09:21:53;19.00;;;19.00;;
73825;SDS011;62155;55.080;73.208;2022-07-22T09:24:29;19.00;;;19.00;;
73825;SDS011;62155;55.080;73.208;2022-07-22T09:27:07;20.00;;;20.00;;
73825;SDS011;62155;55.080;73.208;2022-07-22T09:29:53;20.67;;;20.67;;
73825;SDS011;62155;55.080;73.208;2022-07-22T09:32:37;19.50;;;19.50;;
73825;SDS011;62155;55.080;73.208;2022-07-22T09:35:25;19.00;;;18.00;;
73825;SDS011;62155;55.080;73.208;2022-07-22T09:40:26;20.00;;;19.00;;
73825;SDS011;62155;55.080;73.208;2022-07-22T09:42:59;20.00;;;20.00;;
73825;SDS011;62155;55.080;73.208;2022-07-22T09:45:43;20.00;;;20.00;;
73825;SDS011;62155;55.080;73.208;2022-07-22T09:48:43;19.00;;;19.00;;
73825;SDS011;62155;55.080;73.208;2022-07-22T09:51:30;19.33;;;19.33;;
73825;SDS011;62155;55.080;73.208;2022-07-22T09:54:26;19.50;;;19.50;;
73825;SDS011;62155;55.080;73.208;2022-07-22T09:57:02;18.50;;;18.50;;
73825;SDS011;62155;55.080;73.208;2022-07-22T09:59:31;17.33;;;17.33;;
73825;SDS011;62155;55.080;73.208;2022-07-22T10:02:22;17.00;;;17.00;;
73825;SDS011;62155;55.080;73.208;2022-07-22T10:04:49;18.00;;;18.00;;
73825;SDS011;62155;55.080;73.208;2022-07-22T10:07:18;18.00;;;18.00;;
73825;SDS011;62155;55.080;73.208;2022-07-22T10:10:11;19.00;;;18.00;;
73825;SDS011;62155;55.080;73.208;2022-07-22T10:12:38;19.00;;;18.00;;
73825;SDS011;62155;55.080;73.208;2022-07-22T10:15:09;18.00;;;18.00;;
73825;SDS011;62155;55.080;73.208;2022-07-22T10:17:38;21.00;;;21.00;;
73825;SDS011;62155;55.080;73.208;2022-07-22T10:20:27;20.00;;;20.00;;
73825;SDS011;62155;55.080;73.208;2022-07-22T10:23:03;19.75;;;19.00;;
73825;SDS011;62155;55.080;73.208;2022-07-22T10:25:31;22.00;;;21.00;;
73825;SDS011;62155;55.080;73.208;2022-07-22T10:30:30;20.00;;;20.00;;
73825;SDS011;62155;55.080;73.208;2022-07-22T10:33:11;21.00;;;21.00;;
73825;SDS011;62155;55.080;73.208;2022-07-22T10:38:11;19.00;;;18.00;;
73825;SDS011;62155;55.080;73.208;2022-07-22T10:43:31;17.75;;;17.75;;
73825;SDS011;62155;55.080;73.208;2022-07-22T10:45:59;18.00;;;18.00;;
73825;SDS011;62155;55.080;73.208;2022-07-22T10:48:49;19.00;;;18.50;;
73825;SDS011;62155;55.080;73.208;2022-07-22T10:51:19;20.50;;;20.00;;
73825;SDS011;62155;55.080;73.208;2022-07-22T10:53:57;20.00;;;19.00;;
73825;SDS011;62155;55.080;73.208;2022-07-22T10:56:32;20.50;;;17.50;;
73825;SDS011;62155;55.080;73.208;2022-07-22T10:59:13;20.25;;;18.25;;
73825;SDS011;62155;55.080;73.208;2022-07-22T11:01:42;19.50;;;19.00;;
73825;SDS011;62155;55.080;73.208;2022-07-22T11:04:19;17.75;;;17.75;;
73825;SDS011;62155;55.080;73.208;2022-07-22T11:06:49;19.25;;;19.25;;
73825;SDS011;62155;55.080;73.208;2022-07-22T11:09:32;20.00;;;20.00;;
73825;SDS011;62155;55.080;73.208;2022-07-22T11:12:03;18.00;;;18.00;;
73825;SDS011;62155;55.080;73.208;2022-07-22T11:14:40;19.00;;;18.00;;
73825;SDS011;62155;55.080;73.208;2022-07-22T11:17:08;19.00;;;18.00;;
73825;SDS011;62155;55.080;73.208;2022-07-22T11:19:37;20.00;;;18.00;;
73825;SDS011;62155;55.080;73.208;2022-07-22T11:24:32;20.75;;;19.50;;
73825;SDS011;62155;55.080;73.208;2022-07-22T11:27:03;20.00;;;20.00;;
73825;SDS011;62155;55.080;73.208;2022-07-22T11:29:37;20.50;;;20.00;;
73825;SDS011;62155;55.080;73.208;2022-07-22T11:32:07;22.00;;;21.00;;
73825;SDS011;62155;55.080;73.208;2022-07-22T11:34:39;22.50;;;21.50;;
73825;SDS011;62155;55.080;73.208;2022-07-22T11:37:29;22.00;;;21.50;;
73825;SDS011;62155;55.080;73.208;2022-07-22T11:40:00;23.00;;;21.00;;
73825;SDS011;62155;55.080;73.208;2022-07-22T11:42:29;20.50;;;20.50;;
73825;SDS011;62155;55.080;73.208;2022-07-22T11:44:59;18.33;;;18.33;;
73825;SDS011;62155;55.080;73.208;2022-07-22T11:47:34;20.75;;;20.75;;
73825;SDS011;62155;55.080;73.208;2022-07-22T11:50:02;23.00;;;23.00;;
73825;SDS011;62155;55.080;73.208;2022-07-22T11:52:33;21.00;;;21.00;;
73825;SDS011;62155;55.080;73.208;2022-07-22T11:55:00;21.33;;;21.33;;
73825;SDS011;62155;55.080;73.208;2022-07-22T11:57:47;22.00;;;22.00;;
73825;SDS011;62155;55.080;73.208;2022-07-22T12:00:16;23.00;;;23.00;;
73825;SDS011;62155;55.080;73.208;2022-07-22T12:02:44;21.00;;;21.00;;
73825;SDS011;62155;55.080;73.208;2022-07-22T12:05:22;21.00;;;21.00;;
73825;SDS011;62155;55.080;73.208;2022-07-22T12:07:49;22.50;;;22.50;;
73825;SDS011;62155;55.080;73.208;2022-07-22T12:10:16;22.00;;;22.00;;
73825;SDS011;62155;55.080;73.208;2022-07-22T12:12:43;21.25;;;21.25;;
73825;SDS011;62155;55.080;73.208;2022-07-22T12:15:13;21.00;;;20.67;;
73825;SDS011;62155;55.080;73.208;2022-07-22T12:18:17;22.00;;;21.00;;
73825;SDS011;62155;55.080;73.208;2022-07-22T12:20:46;22.00;;;22.00;;
73825;SDS011;62155;55.080;73.208;2022-07-22T12:23:17;21.00;;;21.00;;
73825;SDS011;62155;55.080;73.208;2022-07-22T12:25:51;20.00;;;20.00;;
73825;SDS011;62155;55.080;73.208;2022-07-22T12:28:19;21.00;;;20.00;;
73825;SDS011;62155;55.080;73.208;2022-07-22T12:30:57;21.67;;;21.00;;
73825;SDS011;62155;55.080;73.208;2022-07-22T12:33:24;23.00;;;21.00;;
73825;SDS011;62155;55.080;73.208;2022-07-22T12:36:00;22.50;;;22.00;;
73825;SDS011;62155;55.080;73.208;2022-07-22T12:38:34;21.75;;;20.75;;
73825;SDS011;62155;55.080;73.208;2022-07-22T12:43:54;20.25;;;20.25;;
73825;SDS011;62155;55.080;73.208;2022-07-22T12:46:29;20.00;;;20.00;;
73825;SDS011;62155;55.080;73.208;2022-07-22T12:48:57;22.00;;;20.50;;
73825;SDS011;62155;55.080;73.208;2022-07-22T12:51:34;20.00;;;20.00;;
73825;SDS011;62155;55.080;73.208;2022-07-22T12:54:07;22.00;;;20.00;;
73825;SDS011;62155;55.080;73.208;2022-07-22T12:56:34;19.00;;;19.00;;
73825;SDS011;62155;55.080;73.208;2022-07-22T12:59:02;20.50;;;19.50;;
73825;SDS011;62155;55.080;73.208;2022-07-22T13:01:34;18.00;;;16.33;;
73825;SDS011;62155;55.080;73.208;2022-07-22T13:04:01;18.00;;;17.00;;
73825;SDS011;62155;55.080;73.208;2022-07-22T13:06:32;18.00;;;18.00;;
73825;SDS011;62155;55.080;73.208;2022-07-22T13:09:00;16.00;;;16.00;;
73825;SDS011;62155;55.080;73.208;2022-07-22T13:11:27;15.67;;;15.67;;
73825;SDS011;62155;55.080;73.208;2022-07-22T13:14:05;15.50;;;14.00;;
73825;SDS011;62155;55.080;73.208;2022-07-22T13:16:32;17.00;;;14.00;;
73825;SDS011;62155;55.080;73.208;2022-07-22T13:19:11;16.75;;;13.00;;
73825;SDS011;62155;55.080;73.208;2022-07-22T13:21:47;15.00;;;13.00;;
73825;SDS011;62155;55.080;73.208;2022-07-22T13:24:14;14.25;;;12.25;;
73825;SDS011;62155;55.080;73.208;2022-07-22T13:26:42;13.00;;;12.00;;
73825;SDS011;62155;55.080;73.208;2022-07-22T13:29:10;13.00;;;12.75;;
73825;SDS011;62155;55.080;73.208;2022-07-22T13:31:40;17.33;;;16.00;;
73825;SDS011;62155;55.080;73.208;2022-07-22T13:34:07;18.00;;;15.75;;
73825;SDS011;62155;55.080;73.208;2022-07-22T13:36:34;17.00;;;14.00;;
73825;SDS011;62155;55.080;73.208;2022-07-22T13:39:01;14.00;;;10.00;;
73825;SDS011;62155;55.080;73.208;2022-07-22T13:41:31;12.00;;;8.00;;
73825;SDS011;62155;55.080;73.208;2022-07-22T13:43:59;10.00;;;9.00;;
73825;SDS011;62155;55.080;73.208;2022-07-22T13:46:36;9.00;;;9.00;;
73825;SDS011;62155;55.080;73.208;2022-07-22T13:49:03;7.75;;;6.50;;
73825;SDS011;62155;55.080;73.208;2022-07-22T13:51:30;10.00;;;10.00;;
73825;SDS011;62155;55.080;73.208;2022-07-22T13:54:03;9.75;;;9.75;;
73825;SDS011;62155;55.080;73.208;2022-07-22T13:56:34;8.33;;;8.00;;
73825;SDS011;62155;55.080;73.208;2022-07-22T13:59:02;6.25;;;6.25;;
73825;SDS011;62155;55.080;73.208;2022-07-22T14:01:40;8.00;;;8.00;;
73825;SDS011;62155;55.080;73.208;2022-07-22T14:04:08;7.50;;;7.50;;
73825;SDS011;62155;55.080;73.208;2022-07-22T14:06:34;6.00;;;6.00;;
73825;SDS011;62155;55.080;73.208;2022-07-22T14:09:07;6.00;;;6.00;;
73825;SDS011;62155;55.080;73.208;2022-07-22T14:11:34;4.33;;;4.33;;
73825;SDS011;62155;55.080;73.208;2022-07-22T14:14:02;6.00;;;6.00;;
73825;SDS011;62155;55.080;73.208;2022-07-22T14:16:30;5.50;;;5.50;;
73825;SDS011;62155;55.080;73.208;2022-07-22T14:21:43;5.00;;;5.00;;
73825;SDS011;62155;55.080;73.208;2022-07-22T14:24:11;4.00;;;4.00;;
73825;SDS011;62155;55.080;73.208;2022-07-22T14:26:38;4.00;;;3.75;;
73825;SDS011;62155;55.080;73.208;2022-07-22T14:29:11;6.25;;;6.00;;
73825;SDS011;62155;55.080;73.208;2022-07-22T14:31:41;7.00;;;7.00;;
73825;SDS011;62155;55.080;73.208;2022-07-22T14:34:07;7.00;;;7.00;;
73825;SDS011;62155;55.080;73.208;2022-07-22T14:36:38;7.00;;;7.00;;
73825;SDS011;62155;55.080;73.208;2022-07-22T14:39:08;7.75;;;7.50;;
73825;SDS011;62155;55.080;73.208;2022-07-22T14:41:39;7.00;;;6.00;;
73825;SDS011;62155;55.080;73.208;2022-07-22T14:44:13;8.25;;;7.00;;
73825;SDS011;62155;55.080;73.208;2022-07-22T14:46:40;6.25;;;6.25;;
73825;SDS011;62155;55.080;73.208;2022-07-22T14:49:09;7.25;;;7.00;;
73825;SDS011;62155;55.080;73.208;2022-07-22T14:51:37;7.50;;;6.50;;
73825;SDS011;62155;55.080;73.208;2022-07-22T14:54:08;5.00;;;4.25;;
73825;SDS011;62155;55.080;73.208;2022-07-22T14:56:48;4.25;;;4.00;;
73825;SDS011;62155;55.080;73.208;2022-07-22T14:59:25;6.00;;;6.00;;
73825;SDS011;62155;55.080;73.208;2022-07-22T15:01:53;5.00;;;5.00;;
73825;SDS011;62155;55.080;73.208;2022-07-22T15:04:25;5.00;;;5.00;;
73825;SDS011;62155;55.080;73.208;2022-07-22T15:07:04;7.00;;;7.00;;